Time;durP1;ratioP1;P1;durP2;ratioP2;P2;SDS_P1;SDS_P2;PMS_P1;PMS_P2;Temp;Humidity;BMP_temperature;BMP_pressure;BME280_temperature;BME280_humidity;BME280_pressure;Samples;Min_cycle;Max_cycle;Signal;HPM_P1;HPM_P2
2023/02/20 00:00:28;;;;;;;19.35;8.40;;;8.20;99.90;;;;;;5075862;28;20217;-80
2023/02/20 00:02:54;;;;;;;17.75;9.38;;;8.20;99.90;;;;;;5075254;28;20179;-79
2023/02/20 00:05:20;;;;;;;14.13;7.80;;;8.10;99.90;;;;;;5075096;28;20251;-79
2023/02/20 00:07:46;;;;;;;13.10;7.40;;;8.10;99.90;;;;;;5074945;28;20174;-80
2023/02/20 00:10:12;;;;;;;12.15;7.95;;;8.00;99.90;;;;;;5075780;28;20228;-79
2023/02/20 00:12:38;;;;;;;19.75;7.82;;;7.80;99.90;;;;;;5075886;28;20182;-80
2023/02/20 00:15:05;;;;;;;20.17;8.75;;;7.90;99.90;;;;;;5075250;28;20163;-78
2023/02/20 00:17:30;;;;;;;18.65;9.02;;;7.70;99.90;;;;;;5075352;28;20190;-78
2023/02/20 00:19:56;;;;;;;20.75;8.27;;;7.70;99.90;;;;;;5078954;28;20174;-80
2023/02/20 00:22:23;;;;;;;12.30;7.50;;;7.70;99.90;;;;;;5079533;28;20187;-81
2023/02/20 00:24:48;;;;;;;17.52;7.13;;;7.80;99.90;;;;;;5079760;28;20178;-81
2023/02/20 00:27:14;;;;;;;14.77;7.80;;;7.80;99.90;;;;;;5078696;28;20216;-79
2023/02/20 00:29:39;;;;;;;14.73;7.28;;;7.70;99.90;;;;;;5075180;28;20190;-80
2023/02/20 00:32:05;;;;;;;15.45;6.28;;;7.60;99.90;;;;;;5074760;28;20170;-79
2023/02/20 00:34:31;;;;;;;14.65;6.80;;;7.70;99.90;;;;;;5074925;28;20531;-80
2023/02/20 00:36:57;;;;;;;19.58;7.30;;;7.70;99.90;;;;;;5074598;28;20166;-79
2023/02/20 00:39:22;;;;;;;10.55;5.93;;;7.50;99.90;;;;;;5074469;28;20253;-81
2023/02/20 00:41:48;;;;;;;11.63;6.82;;;7.50;99.90;;;;;;5073461;28;20224;-77
2023/02/20 00:44:15;;;;;;;17.15;7.07;;;7.50;99.90;;;;;;5054854;28;20651;-80
2023/02/20 00:46:41;;;;;;;12.70;6.70;;;7.50;99.90;;;;;;5072544;28;20209;-80
2023/02/20 00:49:07;;;;;;;11.32;7.07;;;7.50;99.90;;;;;;5074294;28;20167;-77
2023/02/20 00:51:34;;;;;;;18.73;7.63;;;7.40;99.90;;;;;;5074483;28;20166;-78
2023/02/20 00:54:00;;;;;;;22.50;7.03;;;7.60;99.90;;;;;;5074361;28;20190;-78
2023/02/20 00:56:25;;;;;;;16.05;7.35;;;7.50;99.90;;;;;;5074167;28;20696;-76
2023/02/20 00:58:51;;;;;;;10.60;7.50;;;7.50;99.90;;;;;;5074323;28;20211;-78
2023/02/20 01:01:17;;;;;;;18.42;8.18;;;7.50;99.90;;;;;;5074342;28;20175;-78
2023/02/20 01:03:43;;;;;;;19.42;8.88;;;7.60;99.90;;;;;;5073780;28;20190;-77
2023/02/20 01:06:09;;;;;;;21.65;7.32;;;7.60;99.90;;;;;;5073936;28;20237;-79
2023/02/20 01:08:35;;;;;;;17.00;8.57;;;7.60;99.90;;;;;;5073877;28;20170;-78
2023/02/20 01:11:00;;;;;;;23.65;9.32;;;7.60;99.90;;;;;;5073965;28;20170;-78
2023/02/20 01:13:26;;;;;;;19.75;10.27;;;7.70;99.90;;;;;;5073894;28;20289;-79
2023/02/20 01:15:51;;;;;;;18.05;10.60;;;7.70;99.90;;;;;;5073325;28;20504;-79
2023/02/20 01:18:17;;;;;;;31.30;10.30;;;7.80;99.90;;;;;;5073366;28;20167;-78
2023/02/20 01:20:43;;;;;;;24.70;11.18;;;7.90;99.90;;;;;;5072113;28;20162;-78
2023/02/20 01:23:09;;;;;;;23.50;11.55;;;7.80;99.90;;;;;;5073872;28;20197;-78
2023/02/20 01:25:35;;;;;;;19.55;11.25;;;7.80;99.90;;;;;;5073779;28;20206;-78
2023/02/20 01:28:00;;;;;;;24.63;12.48;;;7.90;99.90;;;;;;5073883;28;20220;-78
2023/02/20 01:30:26;;;;;;;21.70;12.07;;;7.80;99.90;;;;;;5073359;28;20202;-79
2023/02/20 01:32:52;;;;;;;19.45;12.40;;;7.90;99.90;;;;;;5073337;28;20681;-78
2023/02/20 01:35:17;;;;;;;26.30;12.32;;;7.80;99.90;;;;;;5072438;28;20167;-78
2023/02/20 01:37:43;;;;;;;37.95;14.35;;;7.80;99.90;;;;;;5054576;28;20166;-79
2023/02/20 01:40:18;;;;;;;20.20;12.98;;;7.90;99.90;;;;;;5071508;28;20177;-80
2023/02/20 01:42:43;;;;;;;24.45;12.27;;;7.80;99.90;;;;;;5071819;28;20184;-78
2023/02/20 01:45:21;;;;;;;30.17;13.25;;;7.80;99.90;;;;;;5072617;28;20194;-78
2023/02/20 01:47:48;;;;;;;31.83;14.45;;;7.90;99.90;;;;;;5054379;28;20174;-78
2023/02/20 01:50:15;;;;;;;31.30;14.35;;;7.90;99.90;;;;;;5073030;28;20683;-81
2023/02/20 01:52:44;;;;;;;29.30;14.60;;;8.00;99.90;;;;;;5072261;28;20592;-80
2023/02/20 01:55:12;;;;;;;27.80;15.95;;;8.00;99.90;;;;;;5072172;28;20173;-80
2023/02/20 01:58:04;;;;;;;28.83;13.63;;;8.00;99.90;;;;;;5055455;28;20510;-79
2023/02/20 02:00:29;;;;;;;35.38;16.20;;;7.90;99.90;;;;;;5053799;28;20181;-78
2023/02/20 02:03:21;;;;;;;39.30;15.45;;;7.90;99.90;;;;;;5055118;28;20190;-79
2023/02/20 02:05:52;;;;;;;23.45;13.85;;;8.00;99.90;;;;;;5041566;28;20621;-80
2023/02/20 02:08:20;;;;;;;35.38;15.50;;;8.10;99.90;;;;;;5072332;28;20159;-78
2023/02/20 02:10:55;;;;;;;45.58;16.90;;;8.10;99.90;;;;;;5072816;28;20645;-80
2023/02/20 02:15:52;;;;;;;31.73;17.30;;;8.30;99.90;;;;;;5054677;28;20542;-77
2023/02/20 02:18:33;;;;;;;34.03;17.42;;;8.30;99.90;;;;;;5072597;28;20587;-78
2023/02/20 02:21:43;;;;;;;45.72;18.52;;;8.30;99.90;;;;;;5072710;28;20245;-78
2023/02/20 02:24:32;;;;;;;36.95;16.38;;;8.30;99.90;;;;;;5060953;28;20207;-79
2023/02/20 02:27:15;;;;;;;46.60;18.38;;;8.30;99.90;;;;;;5072245;28;20237;-79
2023/02/20 02:30:07;;;;;;;40.38;16.23;;;8.20;99.90;;;;;;5071787;28;20530;-78
2023/02/20 02:33:16;;;;;;;30.63;14.55;;;8.30;99.90;;;;;;5052838;28;20235;-77
2023/02/20 02:36:05;;;;;;;36.28;14.20;;;8.40;99.90;;;;;;5072073;28;20166;-78
2023/02/20 02:38:46;;;;;;;19.30;12.57;;;8.40;99.90;;;;;;5072383;28;20163;-80
2023/02/20 02:41:49;;;;;;;32.83;11.88;;;8.50;99.90;;;;;;5054946;28;20201;-78
2023/02/20 02:44:21;;;;;;;27.92;11.10;;;8.50;99.90;;;;;;5071322;28;20718;-78
2023/02/20 02:46:58;;;;;;;27.65;11.70;;;8.70;99.90;;;;;;5071488;28;20199;-80
2023/02/20 02:49:35;;;;;;;28.80;10.88;;;8.40;99.90;;;;;;5070721;28;20167;-80
2023/02/20 02:52:02;;;;;;;21.23;10.63;;;8.30;99.90;;;;;;5070371;28;20189;-80
2023/02/20 02:54:28;;;;;;;19.83;10.27;;;8.30;99.90;;;;;;5071021;28;20250;-80
2023/02/20 02:57:16;;;;;;;16.08;9.90;;;8.50;99.90;;;;;;5071147;28;20162;-80
2023/02/20 02:59:43;;;;;;;23.98;9.43;;;8.40;99.90;;;;;;5071482;28;20201;-81
2023/02/20 03:02:14;;;;;;;21.05;10.15;;;8.50;99.90;;;;;;5072435;28;20194;-78
2023/02/20 03:04:43;;;;;;;19.55;9.25;;;8.60;99.90;;;;;;5072353;28;20680;-80
2023/02/20 03:07:14;;;;;;;20.10;9.60;;;8.60;99.90;;;;;;5074586;28;20228;-82
2023/02/20 03:09:50;;;;;;;16.75;9.02;;;8.60;99.90;;;;;;5076447;28;20166;-80
2023/02/20 03:12:17;;;;;;;31.98;10.18;;;8.60;99.90;;;;;;5076500;28;20721;-78
2023/02/20 03:18:09;;;;;;;16.08;8.73;;;8.40;99.90;;;;;;5075818;28;20181;-78
2023/02/20 03:20:38;;;;;;;17.98;9.02;;;8.40;99.90;;;;;;5057876;28;20168;-78
2023/02/20 03:23:07;;;;;;;30.35;8.18;;;8.40;99.90;;;;;;5075680;28;20273;-78
2023/02/20 03:25:35;;;;;;;14.65;8.00;;;8.50;99.90;;;;;;5075569;28;20285;-79
2023/02/20 03:28:05;;;;;;;11.40;8.20;;;8.50;99.90;;;;;;5075330;28;20189;-78
2023/02/20 03:30:58;;;;;;;20.52;8.68;;;8.60;99.90;;;;;;5075439;28;20161;-77
2023/02/20 03:44:45;;;;;;;15.25;7.75;;;8.30;99.90;;;;;;5075529;28;20197;-78
2023/02/20 03:47:16;;;;;;;13.50;7.57;;;8.40;99.90;;;;;;5057517;28;20206;-78
2023/02/20 03:49:45;;;;;;;17.60;7.32;;;8.50;99.90;;;;;;5075487;28;20500;-78
2023/02/20 03:52:11;;;;;;;25.20;6.93;;;8.60;99.90;;;;;;5074777;28;20188;-78
2023/02/20 03:54:38;;;;;;;18.48;8.32;;;8.50;99.90;;;;;;5075290;28;20261;-78
2023/02/20 03:57:15;;;;;;;14.65;6.68;;;8.60;99.90;;;;;;5075248;28;20250;-78
2023/02/20 03:59:47;;;;;;;17.77;8.65;;;8.60;99.90;;;;;;5075163;28;20155;-78
2023/02/20 04:02:33;;;;;;;17.73;6.97;;;8.50;99.90;;;;;;5075162;28;20193;-77
2023/02/20 04:05:04;;;;;;;18.52;7.90;;;8.50;99.90;;;;;;5075029;28;20210;-78
2023/02/20 04:07:39;;;;;;;17.20;7.05;;;8.50;99.90;;;;;;5074453;28;20162;-78
2023/02/20 04:10:08;;;;;;;15.65;6.88;;;8.60;99.90;;;;;;5074834;28;20245;-78
2023/02/20 04:12:39;;;;;;;16.13;6.88;;;8.70;99.90;;;;;;5074873;28;20264;-79
2023/02/20 04:15:07;;;;;;;11.68;5.82;;;8.80;99.90;;;;;;5075252;28;20261;-78
2023/02/20 04:17:42;;;;;;;18.88;6.93;;;8.70;99.90;;;;;;5074736;28;20159;-82
2023/02/20 04:20:09;;;;;;;13.90;6.32;;;8.70;99.90;;;;;;5074768;28;20174;-80
2023/02/20 04:22:39;;;;;;;17.75;6.70;;;8.60;99.90;;;;;;5075009;28;20231;-82
2023/02/20 04:25:20;;;;;;;17.27;6.15;;;8.70;99.90;;;;;;5074745;28;20233;-79
2023/02/20 04:27:46;;;;;;;12.27;5.53;;;8.70;99.90;;;;;;5074829;28;20162;-78
2023/02/20 04:30:12;;;;;;;19.00;6.07;;;8.70;99.90;;;;;;5074575;28;20623;-78
2023/02/20 04:32:37;;;;;;;15.27;5.80;;;8.60;99.90;;;;;;5056524;28;20190;-78
2023/02/20 04:35:03;;;;;;;14.63;5.95;;;8.60;99.90;;;;;;5074668;28;20166;-78
2023/02/20 04:37:29;;;;;;;10.82;5.72;;;8.50;99.90;;;;;;5074562;28;20210;-78
2023/02/20 04:39:54;;;;;;;24.83;6.20;;;8.50;99.90;;;;;;5074565;28;20257;-78
2023/02/20 04:42:20;;;;;;;7.60;5.57;;;8.60;99.90;;;;;;5073903;28;20191;-78
2023/02/20 04:44:46;;;;;;;13.95;5.82;;;8.60;99.90;;;;;;5074266;28;20260;-78
2023/02/20 04:47:16;;;;;;;12.18;5.90;;;8.60;99.90;;;;;;5074999;28;20177;-81
2023/02/20 04:49:42;;;;;;;11.05;6.03;;;8.60;99.90;;;;;;5074901;28;20639;-79
2023/02/20 04:52:08;;;;;;;13.00;6.22;;;8.60;99.90;;;;;;5074752;28;20572;-80
2023/02/20 04:54:34;;;;;;;10.27;6.53;;;8.60;99.90;;;;;;5075045;28;20158;-84
2023/02/20 04:56:59;;;;;;;14.63;5.70;;;8.50;99.90;;;;;;5074898;28;20179;-84
2023/02/20 04:59:25;;;;;;;21.67;6.10;;;8.60;99.90;;;;;;5074585;28;20304;-81
2023/02/20 05:01:53;;;;;;;13.57;5.80;;;8.60;99.90;;;;;;5074402;28;20181;-84
2023/02/20 05:04:20;;;;;;;33.33;6.20;;;8.70;99.90;;;;;;5057016;28;20305;-82
2023/02/20 05:06:51;;;;;;;13.30;5.22;;;8.50;99.90;;;;;;5074422;28;20209;-81
2023/02/20 05:09:18;;;;;;;8.95;5.80;;;8.60;99.90;;;;;;5074408;28;20181;-83
2023/02/20 05:11:44;;;;;;;12.13;6.40;;;8.50;99.90;;;;;;5056647;28;20171;-85
2023/02/20 05:14:09;;;;;;;20.88;5.72;;;8.60;99.90;;;;;;5074232;28;20182;-85
2023/02/20 05:16:39;;;;;;;15.50;5.38;;;8.70;99.90;;;;;;5074390;28;20592;-81
2023/02/20 05:19:05;;;;;;;13.63;4.53;;;8.70;99.90;;;;;;5073773;28;20261;-81
2023/02/20 05:24:17;;;;;;;11.00;4.75;;;8.70;99.90;;;;;;5073688;28;20293;-82
2023/02/20 05:26:43;;;;;;;18.50;5.10;;;8.70;99.90;;;;;;5073437;28;20198;-81
2023/02/20 05:29:11;;;;;;;20.17;6.32;;;8.60;99.90;;;;;;5055596;28;20169;-81
2023/02/20 05:31:37;;;;;;;16.98;5.85;;;8.70;99.90;;;;;;5055982;28;20178;-78
2023/02/20 05:34:03;;;;;;;11.95;5.03;;;8.60;99.90;;;;;;5055635;28;20182;-79
2023/02/20 05:36:28;;;;;;;8.88;5.18;;;8.70;99.90;;;;;;5055553;28;20181;-78
2023/02/20 05:38:54;;;;;;;19.95;4.80;;;8.90;99.90;;;;;;5073364;28;20528;-78
2023/02/20 05:41:20;;;;;;;14.48;3.83;;;8.90;99.90;;;;;;5073476;28;20171;-81
2023/02/20 05:43:47;;;;;;;8.52;3.50;;;8.90;99.90;;;;;;5073408;28;20541;-78
2023/02/20 05:46:13;;;;;;;16.27;4.88;;;8.90;99.90;;;;;;5073527;28;20202;-79
2023/02/20 05:48:39;;;;;;;18.52;5.43;;;8.80;99.90;;;;;;5073268;28;20280;-80
2023/02/20 05:51:05;;;;;;;9.75;4.00;;;8.70;99.90;;;;;;5073157;28;20253;-78
2023/02/20 05:53:31;;;;;;;15.45;3.75;;;8.80;99.90;;;;;;5073024;28;20263;-78
2023/02/20 05:55:57;;;;;;;7.47;4.00;;;8.80;99.90;;;;;;5072916;28;20175;-78
2023/02/20 05:58:23;;;;;;;14.15;4.47;;;8.70;99.90;;;;;;5073175;28;20162;-78
2023/02/20 06:00:49;;;;;;;11.68;4.55;;;8.70;99.90;;;;;;5073183;28;20526;-82
2023/02/20 06:03:16;;;;;;;8.23;3.83;;;8.70;99.90;;;;;;5073665;28;20188;-84
2023/02/20 06:05:42;;;;;;;16.80;5.20;;;8.70;99.90;;;;;;5073479;28;20205;-77
2023/02/20 06:08:08;;;;;;;8.50;4.10;;;8.90;99.90;;;;;;5072408;28;20163;-78
2023/02/20 06:10:33;;;;;;;7.43;3.47;;;8.80;99.90;;;;;;5072883;28;20178;-77
2023/02/20 06:12:59;;;;;;;14.90;4.63;;;8.60;99.90;;;;;;5072680;28;20182;-77
2023/02/20 06:15:25;;;;;;;14.57;4.32;;;8.70;99.90;;;;;;5072514;28;20249;-78
2023/02/20 06:17:51;;;;;;;9.65;4.03;;;8.60;99.90;;;;;;5072316;28;20163;-77
2023/02/20 06:20:17;;;;;;;15.18;3.65;;;8.60;99.90;;;;;;5072673;28;20259;-78
2023/02/20 06:22:43;;;;;;;14.15;3.65;;;8.60;99.90;;;;;;5054620;28;20214;-78
2023/02/20 06:25:08;;;;;;;11.10;4.55;;;8.60;99.90;;;;;;5072724;28;20186;-81
2023/02/20 06:27:37;;;;;;;3.95;3.17;;;8.50;99.90;;;;;;5072768;28;20173;-79
2023/02/20 06:30:03;;;;;;;12.85;4.35;;;8.40;99.90;;;;;;5073232;28;20162;-85
2023/02/20 06:32:29;;;;;;;11.02;4.32;;;8.50;99.90;;;;;;5055006;28;20197;-83
2023/02/20 06:34:54;;;;;;;7.32;4.47;;;8.50;99.90;;;;;;5073509;28;20170;-91
2023/02/20 06:37:20;;;;;;;10.40;4.75;;;8.50;99.90;;;;;;5074638;28;20162;-86
2023/02/20 06:39:48;;;;;;;13.45;5.07;;;8.50;99.90;;;;;;5074624;28;20537;-91
2023/02/20 06:42:13;;;;;;;12.43;5.68;;;8.60;99.90;;;;;;5075261;28;20198;-88
2023/02/20 06:44:39;;;;;;;20.10;6.15;;;8.60;99.90;;;;;;5073871;28;20182;-87
2023/02/20 06:47:07;;;;;;;6.97;5.45;;;8.50;99.90;;;;;;5074039;28;20174;-84
2023/02/20 06:49:37;;;;;;;9.30;5.57;;;8.50;99.90;;;;;;5074282;28;20170;-89
2023/02/20 06:52:04;;;;;;;15.20;6.28;;;8.50;99.90;;;;;;5074602;28;20166;-89
2023/02/20 06:54:30;;;;;;;13.30;7.15;;;8.50;99.90;;;;;;5056593;28;20552;-86
2023/02/20 06:56:55;;;;;;;19.58;7.43;;;8.60;99.90;;;;;;5074407;28;20162;-86
2023/02/20 06:59:22;;;;;;;12.48;7.93;;;8.60;99.90;;;;;;5073316;28;20527;-89
2023/02/20 07:01:48;;;;;;;22.17;7.70;;;8.70;99.90;;;;;;5073999;28;20163;-89
2023/02/20 07:04:16;;;;;;;9.38;7.13;;;8.70;99.90;;;;;;5073161;28;20182;-87
2023/02/20 07:06:42;;;;;;;21.77;8.00;;;8.50;99.90;;;;;;5073152;28;20270;-82
2023/02/20 07:09:08;;;;;;;15.73;7.25;;;8.70;99.90;;;;;;5072823;28;20718;-82
2023/02/20 07:11:34;;;;;;;28.05;7.25;;;8.80;99.90;;;;;;5073145;28;20523;-87
2023/02/20 07:14:00;;;;;;;15.18;6.43;;;8.90;99.90;;;;;;5072539;28;20190;-83
2023/02/20 07:16:25;;;;;;;10.68;6.50;;;9.00;99.90;;;;;;5072656;28;20533;-82
2023/02/20 07:18:51;;;;;;;11.95;6.13;;;9.00;99.90;;;;;;5073199;28;20630;-86
2023/02/20 07:21:16;;;;;;;18.10;7.53;;;8.80;99.90;;;;;;5073692;28;20171;-81
2023/02/20 07:23:44;;;;;;;12.45;5.80;;;8.80;99.90;;;;;;5072334;28;20183;-81
2023/02/20 07:26:24;;;;;;;11.35;5.97;;;8.80;99.90;;;;;;5072601;28;20213;-84
2023/02/20 07:28:50;;;;;;;8.40;6.65;;;8.80;99.90;;;;;;5072777;28;20158;-81
2023/02/20 07:31:16;;;;;;;17.42;6.40;;;8.90;99.90;;;;;;5072091;28;20159;-85
2023/02/20 07:33:42;;;;;;;15.70;6.97;;;8.90;99.90;;;;;;5054404;28;20183;-84
2023/02/20 07:36:13;;;;;;;23.02;6.07;;;8.90;99.90;;;;;;5072284;28;20171;-79
2023/02/20 07:38:38;;;;;;;17.48;6.78;;;9.00;99.90;;;;;;5073003;28;20167;-81
2023/02/20 07:41:04;;;;;;;17.20;6.25;;;9.20;99.90;;;;;;5072491;28;20181;-84
2023/02/20 07:43:30;;;;;;;19.45;6.45;;;9.20;99.90;;;;;;5073184;28;20652;-83
2023/02/20 07:45:56;;;;;;;12.02;7.10;;;9.10;99.90;;;;;;5053966;28;20242;-83
2023/02/20 07:48:22;;;;;;;7.80;5.95;;;9.00;99.90;;;;;;5072075;28;20162;-82
2023/02/20 07:50:48;;;;;;;19.50;6.57;;;9.20;99.90;;;;;;5076141;28;20197;-78
2023/02/20 07:53:16;;;;;;;28.02;5.50;;;9.20;99.90;;;;;;5073158;28;20281;-83
2023/02/20 07:55:42;;;;;;;20.27;5.70;;;9.30;99.90;;;;;;5058081;28;20181;-88
2023/02/20 07:58:08;;;;;;;17.30;7.47;;;9.30;99.90;;;;;;5071294;28;20175;-85
2023/02/20 08:00:34;;;;;;;20.70;6.07;;;9.30;99.90;;;;;;5075107;28;20261;-84
2023/02/20 08:02:59;;;;;;;10.20;5.65;;;9.40;99.90;;;;;;5074584;28;20190;-84
2023/02/20 08:05:26;;;;;;;17.95;6.53;;;9.50;99.90;;;;;;5071936;28;20233;-78
2023/02/20 08:07:52;;;;;;;9.90;5.15;;;9.40;99.90;;;;;;5085866;28;20193;-83
2023/02/20 08:10:23;;;;;;;8.48;5.80;;;9.60;99.90;;;;;;5063385;28;20171;-83
2023/02/20 08:12:50;;;;;;;12.20;6.72;;;9.40;99.90;;;;;;5071639;28;20232;-78
2023/02/20 08:15:21;;;;;;;14.02;6.20;;;9.50;99.90;;;;;;5062834;28;20182;-83
2023/02/20 08:17:46;;;;;;;12.35;6.55;;;9.60;99.90;;;;;;5074546;28;20562;-87
2023/02/20 08:20:17;;;;;;;14.60;5.80;;;9.60;99.90;;;;;;5061528;28;20186;-86
2023/02/20 08:22:44;;;;;;;15.05;5.95;;;9.60;99.90;;;;;;5066518;28;20623;-89
2023/02/20 08:25:09;;;;;;;12.20;6.47;;;9.70;99.90;;;;;;5073780;28;20304;-83
2023/02/20 08:27:38;;;;;;;17.88;6.25;;;9.80;99.90;;;;;;5069072;28;20215;-90
2023/02/20 08:30:05;;;;;;;20.90;5.78;;;9.80;99.90;;;;;;5055090;28;20175;-83
2023/02/20 08:32:31;;;;;;;16.35;5.45;;;9.80;99.90;;;;;;5068734;28;20194;-84
2023/02/20 08:34:56;;;;;;;9.52;5.25;;;9.90;99.90;;;;;;5074212;28;20235;-83
2023/02/20 08:37:22;;;;;;;13.98;6.22;;;9.80;99.90;;;;;;5073517;28;20206;-85
2023/02/20 08:39:48;;;;;;;11.38;5.38;;;9.60;99.90;;;;;;5061973;28;20187;-81
2023/02/20 08:42:16;;;;;;;16.73;5.35;;;9.50;99.90;;;;;;5058402;28;20221;-78
2023/02/20 08:44:41;;;;;;;24.23;5.75;;;9.70;99.90;;;;;;5058470;28;20217;-77
2023/02/20 08:47:07;;;;;;;9.43;5.20;;;9.80;99.90;;;;;;5054287;28;20222;-80
2023/02/20 08:49:33;;;;;;;51.58;9.02;;;9.90;99.90;;;;;;5068585;28;20511;-80
2023/02/20 08:51:58;;;;;;;35.75;7.47;;;9.80;99.90;;;;;;5055249;28;20209;-84
2023/02/20 08:54:24;;;;;;;22.08;5.70;;;9.70;99.90;;;;;;5063945;28;20642;-86
2023/02/20 08:56:50;;;;;;;13.82;5.55;;;9.80;99.90;;;;;;5057362;28;20258;-83
2023/02/20 08:59:15;;;;;;;22.90;6.88;;;9.80;99.90;;;;;;5049307;28;20170;-81
2023/02/20 09:01:42;;;;;;;12.02;5.05;;;9.90;99.90;;;;;;5053666;28;20176;-81
2023/02/20 09:04:09;;;;;;;14.48;4.90;;;9.90;99.90;;;;;;5063982;28;20218;-78
2023/02/20 09:06:35;;;;;;;9.52;4.30;;;9.80;99.90;;;;;;5060337;28;20213;-86
2023/02/20 09:09:03;;;;;;;21.77;5.55;;;9.80;99.90;;;;;;5057690;28;20167;-86
2023/02/20 09:11:29;;;;;;;13.88;5.13;;;9.80;99.90;;;;;;5075076;28;20217;-89
2023/02/20 09:14:00;;;;;;;14.38;5.28;;;9.80;99.90;;;;;;5067841;28;20214;-90
2023/02/20 09:16:27;;;;;;;11.93;5.38;;;10.00;99.90;;;;;;5063912;28;20628;-90
2023/02/20 09:18:56;;;;;;;15.23;6.35;;;10.10;99.90;;;;;;5059138;28;20253;-88
2023/02/20 09:21:27;;;;;;;16.70;5.35;;;10.20;99.90;;;;;;5022260;28;20544;-83
2023/02/20 09:23:53;;;;;;;11.88;6.13;;;10.10;99.90;;;;;;5072373;28;20232;-83
2023/02/20 09:26:18;;;;;;;18.70;5.85;;;9.90;99.90;;;;;;5072922;28;20682;-79
2023/02/20 09:28:44;;;;;;;19.23;7.35;;;9.90;99.90;;;;;;5076643;28;20182;-78
2023/02/20 09:31:09;;;;;;;36.50;11.27;;;10.10;99.90;;;;;;5073340;28;20163;-78
2023/02/20 09:33:35;;;;;;;20.05;10.88;;;10.00;99.90;;;;;;5073449;28;20270;-83
2023/02/20 09:36:01;;;;;;;14.02;7.38;;;10.10;99.90;;;;;;5071289;28;20236;-88
2023/02/20 09:38:28;;;;;;;21.75;8.48;;;10.00;99.90;;;;;;5075030;28;20182;-89
2023/02/20 09:40:59;;;;;;;17.83;7.47;;;10.10;99.90;;;;;;5042768;28;20194;-88
2023/02/20 09:44:03;;;;;;;14.23;6.10;;;9.90;99.90;;;;;;5056029;28;20206;-81
2023/02/20 09:46:30;;;;;;;22.88;5.95;;;9.90;99.90;;;;;;4991348;28;20224;-79
2023/02/20 09:49:09;;;;;;;12.88;6.53;;;9.90;99.90;;;;;;4986718;28;20170;-86
2023/02/20 09:51:38;;;;;;;24.65;6.22;;;10.00;99.90;;;;;;5033186;28;20198;-82
2023/02/20 09:54:16;;;;;;;15.23;6.35;;;9.90;99.90;;;;;;5069480;28;20221;-80
2023/02/20 09:56:45;;;;;;;15.32;6.32;;;10.00;99.90;;;;;;5073093;28;20170;-80
2023/02/20 09:59:13;;;;;;;12.88;6.18;;;10.00;99.90;;;;;;5080116;28;20577;-78
2023/02/20 10:01:54;;;;;;;22.45;6.50;;;9.90;99.90;;;;;;5073976;28;20231;-78
2023/02/20 10:04:24;;;;;;;12.07;5.97;;;10.00;99.90;;;;;;5071986;28;20183;-82
2023/02/20 10:06:53;;;;;;;16.60;6.85;;;10.10;99.90;;;;;;5072122;28;20319;-80
2023/02/20 10:09:19;;;;;;;13.45;6.40;;;10.00;99.90;;;;;;5071785;28;20182;-81
2023/02/20 10:11:55;;;;;;;10.02;5.60;;;10.20;99.90;;;;;;5074230;28;20169;-80
2023/02/20 10:14:44;;;;;;;20.98;6.95;;;10.20;99.90;;;;;;5092335;28;20161;-80
2023/02/20 10:17:32;;;;;;;15.30;6.43;;;10.20;99.90;;;;;;5090381;28;20173;-79
2023/02/20 10:20:00;;;;;;;19.42;6.32;;;10.20;99.90;;;;;;5079947;28;20176;-83
2023/02/20 10:22:55;;;;;;;18.80;6.63;;;10.20;99.90;;;;;;5070291;28;20203;-82
2023/02/20 10:25:29;;;;;;;7.97;6.07;;;10.20;99.90;;;;;;5051630;28;20228;-81
2023/02/20 10:28:14;;;;;;;17.92;5.72;;;10.10;99.90;;;;;;5052503;28;20256;-83
2023/02/20 10:30:48;;;;;;;12.18;6.15;;;10.20;99.90;;;;;;5066092;28;20165;-78
2023/02/20 10:33:22;;;;;;;11.43;5.22;;;10.20;99.90;;;;;;5070165;28;20256;-80
2023/02/20 10:36:01;;;;;;;14.77;5.30;;;10.20;99.90;;;;;;5071203;28;20177;-79
2023/02/20 10:38:33;;;;;;;12.25;5.40;;;10.40;99.90;;;;;;5069099;28;20327;-79
2023/02/20 10:41:19;;;;;;;15.82;5.85;;;10.40;99.90;;;;;;5067749;28;20227;-79
2023/02/20 10:43:58;;;;;;;10.82;5.00;;;10.40;99.90;;;;;;5070354;28;20228;-79
2023/02/20 10:46:51;;;;;;;14.75;5.32;;;10.40;99.90;;;;;;5052895;28;20206;-79
2023/02/20 10:49:31;;;;;;;9.43;4.78;;;10.50;99.90;;;;;;5051830;28;20178;-79
2023/02/20 10:52:01;;;;;;;13.75;4.65;;;10.40;99.90;;;;;;5069658;28;20178;-78
2023/02/20 10:54:50;;;;;;;13.30;4.53;;;10.40;99.90;;;;;;5071126;28;20173;-80
2023/02/20 10:57:33;;;;;;;15.38;4.65;;;10.50;99.90;;;;;;5070874;28;20284;-80
2023/02/20 11:00:04;;;;;;;16.98;4.50;;;10.50;99.90;;;;;;5052640;28;20166;-82
2023/02/20 11:02:33;;;;;;;20.23;5.05;;;10.40;99.90;;;;;;5070319;28;20194;-83
2023/02/20 11:05:07;;;;;;;11.38;5.18;;;10.50;99.90;;;;;;5051539;28;20174;-84
2023/02/20 11:07:33;;;;;;;15.30;5.80;;;10.60;99.90;;;;;;5069598;28;20174;-84
2023/02/20 11:09:59;;;;;;;25.38;5.72;;;10.70;99.90;;;;;;5070471;28;20181;-79
2023/02/20 11:12:55;;;;;;;21.25;5.75;;;10.60;99.90;;;;;;5069436;28;20194;-81
2023/02/20 11:15:24;;;;;;;9.82;5.55;;;10.60;99.90;;;;;;5070798;28;20170;-78
2023/02/20 11:17:55;;;;;;;14.43;5.78;;;10.50;99.90;;;;;;5070289;28;20170;-80
2023/02/20 11:20:34;;;;;;;8.23;4.35;;;10.40;99.90;;;;;;5069215;28;20186;-78
2023/02/20 11:23:00;;;;;;;8.32;4.15;;;10.40;99.90;;;;;;5052902;28;20190;-84
2023/02/20 11:25:34;;;;;;;7.78;3.95;;;10.30;99.90;;;;;;5070306;28;20689;-80
2023/02/20 11:28:12;;;;;;;11.30;5.35;;;10.20;99.90;;;;;;5056286;28;20242;-78
2023/02/20 11:30:41;;;;;;;16.45;6.00;;;10.20;99.90;;;;;;5056700;28;20631;-81
2023/02/20 11:33:21;;;;;;;11.75;5.65;;;10.20;99.90;;;;;;5074738;28;20182;-78
2023/02/20 11:35:55;;;;;;;23.13;5.28;;;10.30;99.90;;;;;;5074695;28;20532;-79
2023/02/20 11:38:20;;;;;;;16.90;5.13;;;10.30;99.90;;;;;;5074922;28;20200;-78
2023/02/20 11:40:52;;;;;;;11.57;5.78;;;10.40;99.90;;;;;;5056648;28;20175;-78
2023/02/20 11:43:39;;;;;;;11.50;4.93;;;10.50;99.90;;;;;;5074620;28;20209;-78
2023/02/20 11:46:20;;;;;;;10.15;4.75;;;10.60;99.90;;;;;;5075225;28;20296;-78
2023/02/20 11:49:07;;;;;;;25.10;6.28;;;10.70;99.90;;;;;;5075540;28;20182;-79
2023/02/20 11:51:43;;;;;;;8.30;4.32;;;10.60;99.90;;;;;;5073898;28;20197;-78
2023/02/20 11:54:16;;;;;;;13.30;3.88;;;10.70;99.90;;;;;;5074419;28;20183;-78
2023/02/20 11:57:20;;;;;;;11.48;4.47;;;10.70;99.90;;;;;;5075177;28;20158;-79
2023/02/20 11:59:48;;;;;;;38.53;6.18;;;10.60;99.90;;;;;;5074221;28;20186;-78
2023/02/20 12:02:16;;;;;;;29.65;7.10;;;10.60;99.90;;;;;;5055627;28;20205;-79
2023/02/20 12:05:00;;;;;;;10.02;5.70;;;10.70;99.90;;;;;;5074625;28;20178;-79
2023/02/20 12:07:52;;;;;;;13.75;5.75;;;10.80;99.90;;;;;;5056861;28;20185;-78
2023/02/20 12:10:36;;;;;;;23.17;5.53;;;10.70;99.90;;;;;;5074544;28;20197;-79
2023/02/20 12:13:04;;;;;;;10.32;5.55;;;10.90;99.90;;;;;;5074537;28;20255;-78
2023/02/20 12:15:29;;;;;;;10.27;5.50;;;10.80;99.90;;;;;;5075045;28;20691;-77
2023/02/20 12:18:25;;;;;;;19.35;6.03;;;10.70;99.90;;;;;;5074790;28;20163;-83
2023/02/20 12:21:31;;;;;;;25.63;6.47;;;10.80;99.90;;;;;;5056729;28;20306;-79
2023/02/20 12:24:16;;;;;;;6.60;5.22;;;10.90;99.90;;;;;;5040886;28;20232;-80
2023/02/20 12:26:49;;;;;;;8.43;5.28;;;11.00;99.90;;;;;;5055879;28;20293;-83
2023/02/20 12:29:41;;;;;;;11.13;5.22;;;10.90;99.90;;;;;;5056189;28;20502;-81
2023/02/20 12:32:37;;;;;;;14.48;4.88;;;11.00;99.90;;;;;;5076004;28;20273;-80
2023/02/20 12:35:30;;;;;;;6.75;6.00;;;11.00;99.90;;;;;;5053047;28;20634;-76
2023/02/20 12:38:04;;;;;;;12.10;5.40;;;11.10;99.90;;;;;;5093527;28;20186;-78
2023/02/20 12:40:41;;;;;;;11.15;5.63;;;11.10;99.90;;;;;;5091644;28;20200;-78
2023/02/20 12:43:37;;;;;;;11.68;5.85;;;11.20;99.90;;;;;;5094259;28;20670;-79
2023/02/20 12:46:12;;;;;;;14.50;6.00;;;11.10;99.90;;;;;;5093890;28;20213;-78
2023/02/20 12:49:21;;;;;;;10.82;6.20;;;11.10;99.90;;;;;;5093632;28;20161;-78
2023/02/20 12:51:59;;;;;;;15.85;6.97;;;11.10;99.90;;;;;;5054885;28;20170;-78
2023/02/20 12:54:44;;;;;;;7.60;6.38;;;11.20;99.90;;;;;;5093314;28;20622;-78
2023/02/20 12:57:28;;;;;;;19.15;6.45;;;11.40;99.90;;;;;;5094225;28;20178;-78
2023/02/20 13:00:05;;;;;;;12.52;6.40;;;11.40;99.90;;;;;;5094221;28;20168;-78
2023/02/20 13:02:45;;;;;;;12.15;6.13;;;11.30;99.90;;;;;;5094348;28;20189;-78
2023/02/20 13:05:21;;;;;;;12.45;6.70;;;11.20;99.90;;;;;;5094008;28;20196;-78
2023/02/20 13:07:52;;;;;;;11.15;5.05;;;11.20;99.90;;;;;;5094096;28;20204;-78
2023/02/20 13:10:25;;;;;;;10.02;5.15;;;11.20;99.90;;;;;;5094272;28;20775;-78
2023/02/20 13:12:52;;;;;;;6.95;5.15;;;11.40;99.90;;;;;;5094097;28;20193;-78
2023/02/20 13:15:42;;;;;;;12.95;6.40;;;11.30;99.90;;;;;;5094223;28;20218;-79
2023/02/20 13:18:27;;;;;;;19.95;6.47;;;11.40;99.90;;;;;;5094086;28;20248;-78
2023/02/20 13:21:01;;;;;;;14.50;6.80;;;11.20;99.90;;;;;;5093380;28;20162;-78
2023/02/20 13:23:33;;;;;;;14.57;7.78;;;11.10;99.90;;;;;;5093691;28;20185;-79